Time;durP1;ratioP1;P1;durP2;ratioP2;P2;SDS_P1;SDS_P2;PMS_P1;PMS_P2;Temp;Humidity;BMP_temperature;BMP_pressure;BME280_temperature;BME280_humidity;BME280_pressure;Samples;Min_cycle;Max_cycle;Signal;HPM_P1;HPM_P2
2023/03/09 00:01:53;;;;;;;0.85;0.85;;;;;;;-4.34;91.86;97250.66;4970391;28;20054;-79
2023/03/09 00:04:21;;;;;;;0.80;0.80;;;;;;;-4.23;91.62;97239.56;4970656;28;20050;-77
2023/03/09 00:06:48;;;;;;;0.70;0.70;;;;;;;-4.30;91.45;97234.25;4971347;28;20605;-78
2023/03/09 00:09:16;;;;;;;0.70;0.70;;;;;;;-4.33;91.68;97239.91;4985248;28;20483;-78
2023/03/09 00:11:46;;;;;;;0.73;0.73;;;;;;;-4.37;91.90;97228.94;4970343;28;20073;-78
2023/03/09 00:14:14;;;;;;;0.70;0.70;;;;;;;-4.46;91.94;97239.81;4971733;28;20051;-77
2023/03/09 00:16:41;;;;;;;0.80;0.80;;;;;;;-4.45;92.11;97244.09;4971890;28;20058;-77
2023/03/09 00:19:09;;;;;;;0.95;0.95;;;;;;;-4.43;92.32;97244.69;4970606;28;20144;-76
2023/03/09 00:21:40;;;;;;;0.75;0.75;;;;;;;-4.43;91.86;97242.91;4971797;28;20057;-77
2023/03/09 00:24:10;;;;;;;0.80;0.80;;;;;;;-4.46;92.07;97245.09;4971329;28;20055;-77
2023/03/09 00:26:40;;;;;;;0.65;0.65;;;;;;;-4.56;92.33;97234.88;4971490;28;20537;-78
2023/03/09 00:29:10;;;;;;;1.00;1.00;;;;;;;-4.52;92.54;97240.59;4970258;28;20413;-77
2023/03/09 00:31:38;;;;;;;0.80;0.80;;;;;;;-4.52;92.66;97244.03;4971466;28;20055;-77
2023/03/09 00:34:05;;;;;;;0.90;0.90;;;;;;;-4.45;92.43;97247.53;4971103;28;20541;-78
2023/03/09 00:36:32;;;;;;;0.60;0.60;;;;;;;-4.45;92.17;97241.47;4971247;28;20051;-77
2023/03/09 00:39:01;;;;;;;0.80;0.80;;;;;;;-4.43;92.01;97245.53;4970090;28;20134;-80
2023/03/09 00:41:30;;;;;;;0.70;0.70;;;;;;;-4.38;91.81;97256.31;4971591;28;20046;-78
2023/03/09 00:43:59;;;;;;;0.80;0.80;;;;;;;-4.25;91.31;97252.13;4971222;28;20051;-77
2023/03/09 00:46:27;;;;;;;0.82;0.82;;;;;;;-4.29;91.25;97245.59;4971207;28;20133;-78
2023/03/09 00:48:54;;;;;;;0.65;0.65;;;;;;;-4.33;91.04;97249.63;4954212;28;20053;-77
2023/03/09 00:51:21;;;;;;;0.57;0.57;;;;;;;-4.45;91.01;97252.00;4961822;28;20580;-76
2023/03/09 00:53:48;;;;;;;0.70;0.70;;;;;;;-4.47;91.54;97241.63;4983163;28;20058;-77
2023/03/09 00:56:20;;;;;;;0.85;0.85;;;;;;;-4.55;91.91;97252.31;4989466;28;20129;-78
2023/03/09 00:58:48;;;;;;;0.80;0.80;;;;;;;-4.64;91.71;97264.78;4989163;28;20079;-78
2023/03/09 01:01:16;;;;;;;0.93;0.93;;;;;;;-4.65;92.07;97249.22;4989431;28;20085;-78
2023/03/09 01:03:44;;;;;;;0.77;0.77;;;;;;;-4.61;92.26;97253.91;4990700;28;20150;-78
2023/03/09 01:06:12;;;;;;;0.82;0.82;;;;;;;-4.58;91.93;97268.50;4993258;28;20042;-77
2023/03/09 01:08:40;;;;;;;0.70;0.70;;;;;;;-4.47;91.78;97254.00;4992865;28;20476;-77
2023/03/09 01:11:12;;;;;;;0.90;0.90;;;;;;;-4.58;91.76;97260.63;4977717;28;20046;-78
2023/03/09 01:13:39;;;;;;;0.80;0.80;;;;;;;-4.70;91.66;97259.50;4994429;28;20043;-78
2023/03/09 01:16:07;;;;;;;0.60;0.60;;;;;;;-4.75;92.25;97251.34;4994017;28;20046;-77
2023/03/09 01:18:36;;;;;;;0.77;0.77;;;;;;;-4.81;92.41;97263.44;4976634;28;20066;-77
2023/03/09 01:21:06;;;;;;;0.60;0.60;;;;;;;-4.83;92.45;97258.38;4993925;28;20133;-78
2023/03/09 01:23:36;;;;;;;0.70;0.70;;;;;;;-4.97;92.61;97267.16;4976625;28;20555;-77
2023/03/09 01:26:04;;;;;;;0.82;0.82;;;;;;;-4.95;92.75;97265.16;4960617;28;20084;-78
2023/03/09 01:28:31;;;;;;;0.80;0.80;;;;;;;-4.99;93.00;97263.88;4994133;28;20572;-78
2023/03/09 01:30:58;;;;;;;0.80;0.80;;;;;;;-5.02;93.01;97257.19;4993675;28;20101;-78
2023/03/09 01:33:25;;;;;;;0.90;0.90;;;;;;;-4.97;93.09;97261.88;4994198;28;20046;-77
2023/03/09 01:35:53;;;;;;;0.70;0.70;;;;;;;-4.99;93.17;97255.19;4992983;28;20554;-78
2023/03/09 01:38:21;;;;;;;1.00;1.00;;;;;;;-4.99;92.98;97258.63;4993951;28;20149;-78
2023/03/09 01:40:48;;;;;;;0.60;0.60;;;;;;;-4.95;92.95;97254.63;4980668;28;20055;-79
2023/03/09 01:43:34;;;;;;;0.80;0.80;;;;;;;-5.01;92.87;97258.81;4974469;28;20051;-77
2023/03/09 01:46:26;;;;;;;0.60;0.60;;;;;;;-5.08;92.88;97249.25;4974530;28;20058;-77
2023/03/09 01:49:11;;;;;;;0.77;0.77;;;;;;;-5.01;92.92;97260.66;4973235;28;20583;-77
2023/03/09 01:51:57;;;;;;;0.70;0.70;;;;;;;-5.08;92.58;97257.94;4957340;28;20133;-79
2023/03/09 01:54:29;;;;;;;;;;;;;;;-4.95;92.37;97257.25;4975106;28;20054;-78
2023/03/09 01:57:02;;;;;;;0.82;0.82;;;;;;;-4.96;91.70;97266.16;4993259;28;19926;-78
2023/03/09 01:59:30;;;;;;;0.60;0.60;;;;;;;-4.96;91.30;97266.16;4992320;28;20046;-77
2023/03/09 02:01:59;;;;;;;0.70;0.70;;;;;;;-5.09;91.50;97266.00;4992054;28;20050;-79
2023/03/09 02:04:32;;;;;;;0.68;0.68;;;;;;;-5.13;91.48;97254.25;4993342;28;20108;-78
2023/03/09 02:06:59;;;;;;;0.75;0.75;;;;;;;-5.15;91.74;97264.97;4976039;28;20112;-77
2023/03/09 02:09:47;;;;;;;0.95;0.95;;;;;;;-5.14;91.69;97266.59;4988766;28;20053;-78
2023/03/09 02:12:17;;;;;;;0.82;0.82;;;;;;;-5.21;91.97;97278.06;4957130;28;20540;-78
2023/03/09 02:14:44;;;;;;;0.75;0.75;;;;;;;-5.18;91.72;97267.16;4973256;28;20059;-78
2023/03/09 02:17:13;;;;;;;0.82;0.82;;;;;;;-5.26;91.81;97270.72;4972730;28;20059;-78
2023/03/09 02:20:07;;;;;;;0.80;0.80;;;;;;;-5.25;91.78;97286.28;4973088;28;20462;-78
2023/03/09 02:22:35;;;;;;;0.73;0.73;;;;;;;-5.37;91.71;97285.16;4973922;28;20537;-78
2023/03/09 02:25:14;;;;;;;0.60;0.60;;;;;;;-5.42;92.10;97297.22;4956433;28;20067;-78
2023/03/09 02:27:41;;;;;;;0.70;0.70;;;;;;;-5.42;92.43;97305.13;4956481;28;20050;-77
2023/03/09 02:30:09;;;;;;;0.65;0.65;;;;;;;-5.37;92.27;97308.00;4956324;28;20042;-78
2023/03/09 02:32:36;;;;;;;0.80;0.80;;;;;;;-5.43;92.46;97304.31;4956431;28;20057;-78
2023/03/09 02:35:08;;;;;;;0.70;0.70;;;;;;;-5.31;92.08;97299.41;4955819;28;20086;-78
2023/03/09 02:37:38;;;;;;;0.70;0.70;;;;;;;-5.40;91.96;97306.56;4971929;28;20162;-77
2023/03/09 02:40:14;;;;;;;0.80;0.80;;;;;;;-5.46;92.09;97310.75;4972365;28;20069;-78
2023/03/09 02:42:47;;;;;;;0.60;0.60;;;;;;;-5.36;92.10;97314.91;4973095;28;20428;-77
2023/03/09 02:45:16;;;;;;;0.70;0.70;;;;;;;-5.43;91.97;97321.91;4956985;28;20061;-78
2023/03/09 02:47:46;;;;;;;0.65;0.65;;;;;;;-5.48;91.89;97320.63;4956247;28;20671;-78
2023/03/09 02:50:15;;;;;;;0.80;0.80;;;;;;;-5.55;92.15;97305.78;4973262;28;20058;-78
2023/03/09 02:52:42;;;;;;;0.70;0.70;;;;;;;-5.65;92.04;97332.34;4973271;28;20047;-77
2023/03/09 02:55:11;;;;;;;0.88;0.88;;;;;;;-5.57;92.24;97320.91;4956238;28;20077;-77
2023/03/09 02:57:40;;;;;;;0.70;0.70;;;;;;;-5.59;91.90;97339.50;4971606;28;20134;-79
2023/03/09 03:00:13;;;;;;;0.90;0.90;;;;;;;-5.52;91.55;97321.16;4971757;28;20075;-78
2023/03/09 03:02:40;;;;;;;0.90;0.90;;;;;;;-5.50;90.67;97319.19;4971939;28;20066;-77
2023/03/09 03:05:08;;;;;;;0.70;0.70;;;;;;;-5.43;90.37;97319.28;4972844;28;20058;-77
2023/03/09 03:07:38;;;;;;;0.75;0.75;;;;;;;-5.45;89.61;97308.94;4971428;28;20055;-78
2023/03/09 03:10:08;;;;;;;0.73;0.73;;;;;;;-5.51;89.62;97317.56;4984021;28;20057;-79
2023/03/09 03:12:35;;;;;;;0.77;0.77;;;;;;;-5.58;89.58;97308.78;4992124;28;20054;-78
2023/03/09 03:15:04;;;;;;;0.57;0.57;;;;;;;-5.54;89.61;97324.00;4991923;28;20054;-78
2023/03/09 03:17:32;;;;;;;0.80;0.80;;;;;;;-5.56;89.09;97320.75;4990660;28;20390;-78
2023/03/09 03:19:59;;;;;;;0.77;0.77;;;;;;;-5.61;89.18;97314.41;4990418;28;20053;-78
2023/03/09 03:22:29;;;;;;;0.98;0.98;;;;;;;-5.61;88.94;97322.28;4990745;28;20053;-79
2023/03/09 03:24:56;;;;;;;0.80;0.80;;;;;;;-5.74;89.29;97336.88;4990019;28;20398;-79
2023/03/09 03:27:23;;;;;;;1.00;1.00;;;;;;;-5.85;89.81;97332.06;4974329;28;20042;-78
2023/03/09 03:29:52;;;;;;;0.70;0.70;;;;;;;-5.86;90.04;97322.56;4990332;28;20046;-78
2023/03/09 03:32:20;;;;;;;0.68;0.68;;;;;;;-5.80;89.95;97332.34;4974298;28;20053;-78
2023/03/09 03:34:47;;;;;;;0.90;0.90;;;;;;;-5.80;89.77;97340.22;4989905;28;20088;-77
2023/03/09 03:37:14;;;;;;;0.70;0.70;;;;;;;-5.81;89.84;97333.34;4990080;28;20058;-79
2023/03/09 03:39:43;;;;;;;0.75;0.75;;;;;;;-5.86;89.73;97330.44;4982216;28;20053;-78
2023/03/09 03:42:10;;;;;;;0.88;0.88;;;;;;;-5.92;89.92;97345.13;4971635;28;20054;-78
2023/03/09 03:44:37;;;;;;;0.60;0.60;;;;;;;-5.99;90.13;97330.31;4971842;28;20051;-78
2023/03/09 03:47:04;;;;;;;0.80;0.80;;;;;;;-6.03;90.13;97336.91;4970554;28;20150;-76
2023/03/09 03:49:32;;;;;;;0.90;0.90;;;;;;;-6.00;90.37;97329.50;4970613;28;20505;-79
2023/03/09 03:52:02;;;;;;;0.90;0.90;;;;;;;-5.96;90.13;97340.44;4970278;28;20145;-77
2023/03/09 03:54:30;;;;;;;1.00;1.00;;;;;;;-6.02;90.06;97339.34;4970695;28;20113;-78
2023/03/09 03:57:02;;;;;;;0.80;0.80;;;;;;;-6.11;90.41;97337.81;4970346;28;20061;-79
2023/03/09 03:59:32;;;;;;;0.82;0.82;;;;;;;-6.09;90.58;97353.41;4971248;28;20051;-79
2023/03/09 04:02:02;;;;;;;0.70;0.70;;;;;;;-6.09;90.62;97348.13;4972861;28;20047;-79
2023/03/09 04:04:33;;;;;;;0.80;0.80;;;;;;;-6.13;90.69;97348.50;4971073;28;20054;-79
2023/03/09 04:07:06;;;;;;;0.80;0.80;;;;;;;-6.18;90.39;97342.97;4970104;28;20433;-79
2023/03/09 04:09:33;;;;;;;0.85;0.85;;;;;;;-6.24;90.79;97348.91;4974497;28;20050;-78
2023/03/09 04:12:00;;;;;;;0.80;0.80;;;;;;;-6.21;90.86;97351.19;4970396;28;20130;-79
2023/03/09 04:14:31;;;;;;;0.70;0.70;;;;;;;-6.06;90.72;97355.66;4981498;28;20584;-80
2023/03/09 04:17:01;;;;;;;0.88;0.88;;;;;;;-5.98;90.36;97355.56;4978785;28;20069;-78
2023/03/09 04:19:34;;;;;;;0.85;0.85;;;;;;;-6.04;90.08;97348.41;4992062;28;20517;-78
2023/03/09 04:22:02;;;;;;;1.00;1.00;;;;;;;-6.03;90.05;97350.84;4994155;28;20468;-79
2023/03/09 04:24:32;;;;;;;0.80;0.80;;;;;;;-5.96;90.12;97364.09;4999038;28;20104;-79
2023/03/09 04:26:59;;;;;;;0.90;0.90;;;;;;;-5.90;90.12;97379.94;4991050;28;20132;-79
2023/03/09 04:29:57;;;;;;;0.95;0.95;;;;;;;-5.87;89.27;97365.63;5002165;28;20058;-81
2023/03/09 04:32:29;;;;;;;0.85;0.85;;;;;;;-5.85;89.33;97368.03;4643080;28;9999831;-81
2023/03/09 04:35:05;;;;;;;0.80;0.80;;;;;;;-5.80;88.88;97371.75;4986558;28;20546;-82
2023/03/09 04:37:34;;;;;;;0.82;0.82;;;;;;;-5.77;88.78;97395.06;4986259;28;20089;-80
2023/03/09 04:40:05;;;;;;;0.95;0.95;;;;;;;-5.74;88.57;97391.25;4957132;28;20616;-82
2023/03/09 04:42:33;;;;;;;0.90;0.90;;;;;;;-5.76;88.63;97399.31;4991904;28;20072;-78
2023/03/09 04:45:01;;;;;;;0.82;0.82;;;;;;;-5.68;88.50;97383.44;4980823;28;20133;-80
2023/03/09 04:47:32;;;;;;;0.75;0.75;;;;;;;-5.54;88.23;97391.53;4971164;28;20484;-79
2023/03/09 04:49:59;;;;;;;0.77;0.77;;;;;;;-5.45;87.07;97393.06;4971408;28;20081;-78
2023/03/09 04:52:31;;;;;;;0.88;0.88;;;;;;;-5.42;86.79;97387.44;4977841;28;20093;-77
2023/03/09 04:54:59;;;;;;;0.60;0.60;;;;;;;-5.36;86.21;97402.50;4976449;28;20049;-78
2023/03/09 04:57:28;;;;;;;0.68;0.68;;;;;;;-5.27;85.61;97409.28;4971749;28;20056;-79
2023/03/09 04:59:56;;;;;;;0.90;0.90;;;;;;;-5.18;84.62;97417.88;4955200;28;20047;-77
2023/03/09 05:02:28;;;;;;;0.90;0.90;;;;;;;-5.08;83.73;97409.72;4955400;28;20100;-79
2023/03/09 05:04:55;;;;;;;0.77;0.77;;;;;;;-5.07;83.32;97406.88;4995197;28;20137;-82
2023/03/09 05:07:22;;;;;;;0.90;0.90;;;;;;;-4.99;82.81;97424.38;4966505;28;20513;-81
2023/03/09 05:09:51;;;;;;;0.90;0.90;;;;;;;-4.91;81.92;97411.16;4953570;28;20054;-78
2023/03/09 05:12:18;;;;;;;0.85;0.85;;;;;;;-4.87;81.67;97407.13;4969925;28;20466;-79
2023/03/09 05:14:45;;;;;;;0.80;0.80;;;;;;;-4.83;81.32;97418.91;4971401;28;20055;-79
2023/03/09 05:17:16;;;;;;;0.80;0.80;;;;;;;-4.75;80.61;97411.91;4974014;28;20069;-77
2023/03/09 05:19:45;;;;;;;0.80;0.80;;;;;;;-4.71;80.37;97413.16;4986041;28;20055;-79
2023/03/09 05:22:12;;;;;;;0.80;0.80;;;;;;;-4.63;80.35;97410.44;4972465;28;20051;-77
2023/03/09 05:24:40;;;;;;;0.88;0.88;;;;;;;-4.54;79.64;97422.44;4985092;28;20409;-79
2023/03/09 05:27:07;;;;;;;0.80;0.80;;;;;;;-4.45;79.26;97416.06;5010724;28;20046;-79
2023/03/09 05:29:40;;;;;;;0.82;0.82;;;;;;;-4.42;79.26;97434.13;5012427;28;20046;-78
2023/03/09 05:32:08;;;;;;;0.80;0.80;;;;;;;-4.37;78.56;97426.47;5004878;28;20113;-77
2023/03/09 05:34:36;;;;;;;1.00;1.00;;;;;;;-4.30;78.35;97412.53;4992309;28;20046;-78
2023/03/09 05:37:04;;;;;;;0.80;0.80;;;;;;;-4.21;77.85;97419.31;4992587;28;20425;-78
2023/03/09 05:39:35;;;;;;;0.85;0.85;;;;;;;-4.14;77.46;97428.91;4992970;28;20085;-79
2023/03/09 05:42:03;;;;;;;0.75;0.75;;;;;;;-4.03;77.34;97421.50;4992073;28;20516;-80
2023/03/09 05:44:33;;;;;;;1.00;1.00;;;;;;;-3.93;77.09;97427.25;4992367;28;20078;-79
2023/03/09 05:47:01;;;;;;;0.80;0.80;;;;;;;-3.82;76.07;97423.28;4992440;28;20057;-78
2023/03/09 05:49:30;;;;;;;0.90;0.90;;;;;;;-3.72;76.15;97432.50;4993929;28;20074;-77
2023/03/09 05:51:58;;;;;;;0.90;0.90;;;;;;;-3.67;75.73;97439.84;4993618;28;20069;-79
2023/03/09 05:54:26;;;;;;;0.90;0.90;;;;;;;-3.63;75.59;97433.16;4976312;28;20065;-78
2023/03/09 05:56:56;;;;;;;1.08;1.08;;;;;;;-3.58;74.91;97440.50;4992305;28;20050;-80
2023/03/09 05:59:24;;;;;;;1.00;1.00;;;;;;;-3.54;74.84;97439.13;4992057;28;20050;-78
2023/03/09 06:01:57;;;;;;;0.90;0.90;;;;;;;-3.51;74.66;97433.44;4992488;28;20054;-79
2023/03/09 06:04:27;;;;;;;0.90;0.90;;;;;;;-3.55;74.67;97435.63;4975946;28;20050;-79
2023/03/09 06:07:00;;;;;;;0.63;0.63;;;;;;;-3.62;74.85;97440.06;4985149;28;20145;-77
2023/03/09 06:09:34;;;;;;;0.77;0.77;;;;;;;-3.58;74.65;97451.03;4944552;28;20057;-78
2023/03/09 06:12:06;;;;;;;0.85;0.85;;;;;;;-3.61;74.77;97454.88;4972297;28;20137;-78
2023/03/09 06:14:33;;;;;;;0.90;0.90;;;;;;;-3.58;74.22;97469.50;4972512;28;20058;-78
2023/03/09 06:17:01;;;;;;;0.82;0.82;;;;;;;-3.60;74.24;97456.50;4972472;28;20054;-78
2023/03/09 06:19:31;;;;;;;1.00;1.00;;;;;;;-3.54;74.11;97463.66;4956399;28;20051;-79
2023/03/09 06:21:58;;;;;;;0.73;0.73;;;;;;;-3.40;73.09;97442.63;4972043;28;20146;-79
2023/03/09 06:24:25;;;;;;;0.80;0.80;;;;;;;-3.25;72.37;97458.34;4972235;28;20054;-76
2023/03/09 06:26:57;;;;;;;0.80;0.80;;;;;;;-3.12;71.97;97482.97;4971990;28;20498;-79
2023/03/09 06:29:31;;;;;;;0.90;0.90;;;;;;;-2.98;71.22;97481.25;4988354;28;20053;-79
2023/03/09 06:31:59;;;;;;;0.80;0.80;;;;;;;-2.69;71.00;97474.84;4971709;28;20046;-78
2023/03/09 06:34:29;;;;;;;0.90;0.90;;;;;;;-2.53;68.53;97478.16;4955423;28;20067;-80
2023/03/09 06:36:58;;;;;;;0.90;0.90;;;;;;;-2.69;68.01;97495.19;4971713;28;20050;-79
2023/03/09 06:39:26;;;;;;;0.88;0.88;;;;;;;-2.87;67.62;97478.03;4971832;28;20093;-78
2023/03/09 06:41:53;;;;;;;0.60;0.60;;;;;;;-2.98;68.99;97483.06;4972481;28;20046;-78
2023/03/09 06:44:30;;;;;;;0.80;0.80;;;;;;;-2.89;69.06;97490.59;4957365;28;20836;-77
2023/03/09 06:46:58;;;;;;;1.05;1.05;;;;;;;-2.73;68.36;97489.47;4971538;28;20086;-78
2023/03/09 06:49:28;;;;;;;0.88;0.88;;;;;;;-2.74;66.89;97501.03;4987991;28;20421;-78
2023/03/09 06:51:58;;;;;;;0.93;0.93;;;;;;;-2.55;66.01;97512.72;4971216;28;20054;-79
2023/03/09 06:54:26;;;;;;;1.00;1.00;;;;;;;-2.29;65.04;97501.41;4973074;28;20110;-79
2023/03/09 06:57:02;;;;;;;1.17;1.17;;;;;;;-1.83;64.16;97498.03;4971297;28;20046;-79
2023/03/09 06:59:29;;;;;;;1.10;1.10;;;;;;;-1.82;62.63;97472.44;4971476;28;20129;-79
2023/03/09 07:01:57;;;;;;;0.95;0.95;;;;;;;-2.15;63.77;97522.59;4970729;28;20043;-79
2023/03/09 07:04:27;;;;;;;1.15;1.10;;;;;;;-2.34;63.94;97495.91;4971273;28;20497;-80
2023/03/09 07:06:54;;;;;;;1.00;1.00;;;;;;;-2.10;63.02;97531.56;4957261;28;20590;-78
2023/03/09 07:09:22;;;;;;;1.02;1.02;;;;;;;-2.02;62.11;97501.50;4972115;28;20046;-78
2023/03/09 07:11:49;;;;;;;1.23;1.17;;;;;;;-2.07;61.73;97493.34;4972325;28;20051;-79
2023/03/09 07:14:17;;;;;;;1.10;1.10;;;;;;;-1.90;61.91;97489.31;4972595;28;20106;-79
2023/03/09 07:16:53;;;;;;;1.13;1.13;;;;;;;-1.42;60.94;97491.75;4972755;28;20055;-81
2023/03/09 07:19:20;;;;;;;0.90;0.90;;;;;;;-1.45;59.65;97507.22;4971328;28;20138;-79
2023/03/09 07:21:48;;;;;;;1.00;1.00;;;;;;;-1.49;59.40;97509.47;4972944;28;20046;-77
2023/03/09 07:24:16;;;;;;;0.90;0.90;;;;;;;-1.28;58.41;97502.31;4976890;28;20113;-78
2023/03/09 07:26:43;;;;;;;1.40;1.30;;;;;;;-1.15;58.47;97539.38;4990715;28;20050;-77
2023/03/09 07:29:10;;;;;;;1.15;1.13;;;;;;;-1.02;57.40;97502.25;4991877;28;20101;-79
2023/03/09 07:31:37;;;;;;;1.30;1.20;;;;;;;-0.69;56.49;97502.16;4991733;28;20097;-78
2023/03/09 07:34:04;;;;;;;1.25;1.17;;;;;;;-0.51;56.36;97514.72;4982264;28;20089;-80
2023/03/09 07:36:34;;;;;;;1.00;1.00;;;;;;;-0.59;55.37;97493.78;4986844;28;20050;-80
2023/03/09 07:39:01;;;;;;;1.30;1.20;;;;;;;-0.98;56.72;97508.78;4971158;28;20524;-79
2023/03/09 07:41:29;;;;;;;1.05;1.05;;;;;;;-1.05;56.61;97505.34;4984502;28;20047;-79
2023/03/09 07:43:58;;;;;;;1.10;1.10;;;;;;;-1.15;56.83;97503.09;4991404;28;20141;-78
2023/03/09 07:46:26;;;;;;;1.02;1.02;;;;;;;-1.17;56.41;97510.44;4974405;28;20599;-77
2023/03/09 07:48:53;;;;;;;0.93;0.93;;;;;;;-1.28;56.26;97526.16;4983064;28;20056;-77
2023/03/09 07:51:21;;;;;;;1.02;1.02;;;;;;;-1.37;55.71;97501.69;4991317;28;20050;-79
2023/03/09 07:53:49;;;;;;;0.90;0.90;;;;;;;-1.34;56.99;97533.06;4990915;28;20410;-78
2023/03/09 07:56:16;;;;;;;1.10;1.10;;;;;;;-1.17;56.65;97523.66;4988716;28;20055;-79
2023/03/09 07:58:45;;;;;;;1.00;1.00;;;;;;;-1.23;55.86;97521.06;4999670;28;20448;-78
2023/03/09 08:01:15;;;;;;;1.27;1.20;;;;;;;-1.18;56.28;97519.41;4986747;28;20055;-79
2023/03/09 08:03:46;;;;;;;1.30;1.20;;;;;;;-1.01;56.24;97525.09;4971768;28;20473;-78
2023/03/09 08:06:13;;;;;;;1.13;1.13;;;;;;;-1.02;55.83;97523.44;4970457;28;20137;-78
2023/03/09 08:08:41;;;;;;;0.90;0.90;;;;;;;-0.85;54.36;97525.66;4990900;28;20469;-78
2023/03/09 08:11:08;;;;;;;1.17;1.15;;;;;;;-0.75;54.12;97521.56;4991027;28;20512;-79
2023/03/09 08:13:35;;;;;;;0.90;0.90;;;;;;;-0.81;54.37;97530.34;4990162;28;20087;-79
2023/03/09 08:16:05;;;;;;;1.10;1.10;;;;;;;-0.75;53.94;97518.09;4990708;28;20057;-79
2023/03/09 08:18:32;;;;;;;0.88;0.88;;;;;;;-0.83;53.82;97516.50;4989209;28;20190;-80
2023/03/09 08:21:11;;;;;;;1.05;1.05;;;;;;;-0.89;53.74;97509.38;4988755;28;20050;-78
2023/03/09 08:23:39;;;;;;;1.27;1.20;;;;;;;-0.99;54.25;97517.72;4990671;28;20050;-78
2023/03/09 08:26:08;;;;;;;1.20;1.15;;;;;;;-0.79;54.07;97517.69;4969843;28;20061;-78
2023/03/09 08:28:35;;;;;;;1.00;1.00;;;;;;;-0.73;53.42;97524.00;4970733;28;20063;-78
2023/03/09 08:31:03;;;;;;;0.95;0.95;;;;;;;-0.72;53.70;97523.78;4970951;28;20142;-79
2023/03/09 08:33:31;;;;;;;1.30;1.20;;;;;;;-0.71;53.00;97516.66;4971190;28;20081;-78
2023/03/09 08:35:58;;;;;;;1.05;1.05;;;;;;;-0.74;53.23;97517.06;4970955;28;20130;-79
2023/03/09 08:38:28;;;;;;;0.98;0.98;;;;;;;-0.71;52.98;97503.41;4971029;28;20070;-79
2023/03/09 08:40:56;;;;;;;1.00;1.00;;;;;;;-0.54;53.18;97506.41;4971243;28;20083;-79
2023/03/09 08:43:28;;;;;;;1.02;1.02;;;;;;;-0.36;52.81;97500.41;4971190;28;20051;-78
2023/03/09 08:45:55;;;;;;;1.00;1.00;;;;;;;-0.41;52.00;97508.19;4971477;28;20526;-78
2023/03/09 08:48:23;;;;;;;1.10;1.10;;;;;;;-0.51;52.10;97500.69;4970707;28;20430;-78
2023/03/09 08:50:50;;;;;;;0.95;0.95;;;;;;;-0.64;52.53;97492.78;4971032;28;20047;-80
2023/03/09 08:53:20;;;;;;;1.00;1.00;;;;;;;-0.47;52.67;97513.31;4971568;28;20050;-79
2023/03/09 08:55:50;;;;;;;1.08;1.08;;;;;;;-0.54;51.81;97512.50;4970827;28;20058;-78
2023/03/09 08:58:19;;;;;;;1.10;1.10;;;;;;;-0.48;51.70;97498.44;4970932;28;20133;-79
2023/03/09 09:00:47;;;;;;;1.00;1.00;;;;;;;-0.49;51.76;97495.97;4970722;28;20050;-78
2023/03/09 09:03:15;;;;;;;1.15;1.13;;;;;;;-0.56;51.77;97498.66;4971086;28;20082;-78
2023/03/09 09:05:42;;;;;;;0.98;0.98;;;;;;;-0.53;51.39;97503.56;4971179;28;20043;-79
2023/03/09 09:08:09;;;;;;;1.10;1.10;;;;;;;-0.44;52.50;97512.06;4986095;28;20065;-79
2023/03/09 09:10:42;;;;;;;1.02;1.02;;;;;;;-0.31;51.64;97492.63;4986620;28;20050;-79
2023/03/09 09:13:09;;;;;;;0.90;0.90;;;;;;;-0.53;51.33;97506.22;4970471;28;20085;-79
2023/03/09 09:15:37;;;;;;;1.10;1.10;;;;;;;-0.42;51.57;97512.69;4971147;28;20081;-78
2023/03/09 09:18:06;;;;;;;1.00;1.00;;;;;;;-0.21;50.88;97503.59;4984736;28;20085;-79
2023/03/09 09:20:38;;;;;;;1.15;1.15;;;;;;;-0.39;50.70;97514.91;4989817;28;20061;-79
2023/03/09 09:23:05;;;;;;;1.10;1.10;;;;;;;-0.37;50.68;97507.56;4990072;28;20054;-80
2023/03/09 09:25:32;;;;;;;1.00;1.00;;;;;;;-0.41;50.62;97506.34;4992733;28;20038;-78
2023/03/09 09:28:01;;;;;;;1.00;1.00;;;;;;;-0.30;51.27;97526.09;4993587;28;20104;-78
2023/03/09 09:30:32;;;;;;;1.00;1.00;;;;;;;-0.64;51.75;97514.78;4991473;28;20062;-79
2023/03/09 09:33:00;;;;;;;1.10;1.10;;;;;;;-0.93;53.23;97522.22;4986138;28;20066;-79
2023/03/09 09:35:27;;;;;;;1.30;1.20;;;;;;;-1.04;54.40;97525.47;4990513;28;20060;-79
2023/03/09 09:37:57;;;;;;;1.10;1.10;;;;;;;-1.08;55.46;97518.19;4992444;28;20414;-79
2023/03/09 09:40:24;;;;;;;1.00;1.00;;;;;;;-1.10;55.44;97518.38;4994394;28;20050;-81
2023/03/09 09:42:52;;;;;;;1.00;1.00;;;;;;;-1.00;56.17;97516.13;4992240;28;20105;-79
2023/03/09 09:45:32;;;;;;;1.10;1.10;;;;;;;-1.07;56.89;97528.53;4996129;28;20046;-78
2023/03/09 09:48:02;;;;;;;1.08;1.08;;;;;;;-1.24;57.77;97516.75;4997595;28;20073;-79
2023/03/09 09:50:55;;;;;;;1.27;1.20;;;;;;;-1.23;58.83;97510.47;4990571;28;20055;-78
2023/03/09 09:53:34;;;;;;;1.02;1.02;;;;;;;-1.32;60.20;97504.53;4987665;28;20054;-79
2023/03/09 09:56:02;;;;;;;1.10;1.10;;;;;;;-1.26;61.74;97510.88;4996168;28;20054;-78
2023/03/09 09:58:36;;;;;;;0.90;0.90;;;;;;;-1.28;62.63;97497.03;4995851;28;20050;-78
2023/03/09 10:01:19;;;;;;;1.33;1.23;;;;;;;-1.35;62.98;97503.13;4987142;28;20058;-79
2023/03/09 10:03:51;;;;;;;1.10;1.10;;;;;;;-1.48;64.30;97507.63;4987824;28;20057;-78
2023/03/09 10:06:24;;;;;;;0.95;0.95;;;;;;;-1.59;65.08;97503.75;4988192;28;20082;-78
2023/03/09 10:08:54;;;;;;;1.00;1.00;;;;;;;-1.45;66.06;97496.63;4991898;28;20113;-77
2023/03/09 10:11:29;;;;;;;1.10;1.10;;;;;;;-1.19;66.32;97491.31;4971187;28;20646;-77
2023/03/09 10:14:07;;;;;;;0.93;0.93;;;;;;;-1.23;67.23;97505.97;4978675;28;20047;-78
2023/03/09 10:16:45;;;;;;;0.85;0.85;;;;;;;-1.20;68.48;97494.16;4982938;28;20051;-80
2023/03/09 10:19:20;;;;;;;1.00;1.00;;;;;;;-1.58;69.80;97492.97;4990777;28;20062;-79
2023/03/09 10:22:01;;;;;;;1.00;1.00;;;;;;;-1.87;71.86;97494.19;4988224;28;20423;-78
2023/03/09 10:24:39;;;;;;;1.10;1.10;;;;;;;-1.77;72.53;97486.66;4991571;28;20099;-80
2023/03/09 10:27:45;;;;;;;1.00;1.00;;;;;;;-1.65;72.63;97484.19;4967376;28;20609;-80
2023/03/09 10:30:27;;;;;;;0.90;0.90;;;;;;;-1.61;72.81;97471.41;4981111;28;20506;-79
2023/03/09 10:33:34;;;;;;;0.90;0.90;;;;;;;-1.61;73.21;97469.56;4995511;28;20141;-79
2023/03/09 10:36:30;;;;;;;1.00;1.00;;;;;;;-2.05;74.27;97476.28;4990669;28;20086;-77
2023/03/09 10:39:08;;;;;;;1.00;1.00;;;;;;;-2.05;75.21;97470.97;4989685;28;20081;-78
2023/03/09 10:41:35;;;;;;;1.00;1.00;;;;;;;-1.85;75.49;97465.72;4987716;28;20042;-78
2023/03/09 10:44:03;;;;;;;0.80;0.80;;;;;;;-2.00;75.54;97467.72;4968755;28;20047;-79
2023/03/09 10:46:31;;;;;;;0.90;0.90;;;;;;;-2.20;76.90;97468.50;4969003;28;20141;-77
2023/03/09 10:49:18;;;;;;;0.95;0.95;;;;;;;-2.06;77.42;97469.34;4971783;28;20425;-77
2023/03/09 10:52:00;;;;;;;1.20;1.20;;;;;;;-1.86;77.23;97466.72;4995571;28;20046;-80
2023/03/09 10:54:40;;;;;;;1.00;1.00;;;;;;;-1.77;77.41;97456.75;4952640;28;20482;-78
2023/03/09 10:57:24;;;;;;;1.10;1.10;;;;;;;-1.71;77.55;97463.06;4988101;28;20144;-78
2023/03/09 11:00:05;;;;;;;1.00;1.00;;;;;;;-1.73;77.71;97451.88;4958754;28;20411;-78
2023/03/09 11:02:35;;;;;;;0.93;0.93;;;;;;;-1.75;77.78;97455.53;4992190;28;20062;-78
2023/03/09 11:05:23;;;;;;;0.95;0.95;;;;;;;-1.89;78.24;97442.53;4986861;28;20058;-77
2023/03/09 11:07:58;;;;;;;1.08;1.08;;;;;;;-1.93;79.03;97443.94;4997611;28;20164;-79
2023/03/09 11:10:32;;;;;;;1.00;1.00;;;;;;;-1.96;78.87;97443.31;4992564;28;20133;-78
2023/03/09 11:13:01;;;;;;;0.90;0.90;;;;;;;-1.83;79.15;97442.50;4992013;28;20077;-79
2023/03/09 11:15:30;;;;;;;1.00;1.00;;;;;;;-1.73;79.26;97439.44;4990937;28;20054;-79
2023/03/09 11:17:59;;;;;;;1.00;1.00;;;;;;;-1.63;79.04;97437.19;4998283;28;20050;-78
2023/03/09 11:20:32;;;;;;;1.00;1.00;;;;;;;-1.66;78.91;97444.75;5009199;28;20046;-78
2023/03/09 11:23:15;;;;;;;1.10;1.10;;;;;;;-1.54;79.07;97437.81;4992135;28;20061;-79
2023/03/09 11:26:03;;;;;;;0.85;0.85;;;;;;;-1.33;78.75;97442.06;4980145;28;20065;-77
2023/03/09 11:28:59;;;;;;;1.02;1.02;;;;;;;-1.28;78.21;97441.44;4988393;28;20062;-78
2023/03/09 11:31:36;;;;;;;1.00;1.00;;;;;;;-1.39;77.64;97443.69;4996592;28;20077;-78
2023/03/09 11:34:10;;;;;;;0.90;0.90;;;;;;;-1.56;78.08;97447.78;4994293;28;20080;-79
2023/03/09 11:36:40;;;;;;;1.00;1.00;;;;;;;-1.48;78.52;97438.81;4978092;28;20054;-79
2023/03/09 11:39:34;;;;;;;1.17;1.10;;;;;;;-1.28;78.61;97436.97;4990367;28;20059;-78
2023/03/09 11:42:09;;;;;;;1.00;1.00;;;;;;;-1.14;78.25;97435.06;4986629;28;20374;-78
2023/03/09 11:44:39;;;;;;;1.10;1.10;;;;;;;-1.14;77.77;97440.38;4993273;28;20576;-80
2023/03/09 11:47:32;;;;;;;1.00;1.00;;;;;;;-1.25;77.51;97441.81;4995648;28;20129;-78
2023/03/09 11:50:09;;;;;;;1.05;1.05;;;;;;;-1.45;77.71;97433.13;4974769;28;20056;-78
2023/03/09 11:52:42;;;;;;;1.00;1.00;;;;;;;-1.54;78.32;97438.63;4990962;28;20054;-78